createdAt,value
2023-02-22T00:01:58.889Z,1.40
2023-02-22T00:04:25.228Z,1.10
2023-02-22T00:06:51.599Z,1.20
2023-02-22T00:09:17.937Z,1.40
2023-02-22T00:11:44.321Z,1.40
2023-02-22T00:14:12.670Z,1.40
2023-02-22T00:16:37.098Z,1.40
2023-02-22T00:19:03.442Z,1.40
2023-02-22T00:21:29.854Z,1.20
2023-02-22T00:23:56.230Z,1.30
2023-02-22T00:26:22.629Z,1.37
2023-02-22T00:28:48.958Z,1.30
2023-02-22T00:31:15.772Z,1.30
2023-02-22T00:33:41.695Z,1.30
2023-02-22T00:36:07.896Z,1.30
2023-02-22T00:38:34.237Z,1.20
2023-02-22T00:41:00.629Z,1.50
2023-02-22T00:43:26.966Z,1.20
2023-02-22T00:45:53.383Z,1.30
2023-02-22T00:48:19.745Z,1.20
2023-02-22T00:50:46.113Z,1.30
2023-02-22T00:53:12.456Z,1.20
2023-02-22T00:55:38.878Z,1.30
2023-02-22T00:58:05.249Z,1.33
2023-02-22T01:00:31.625Z,1.37
2023-02-22T01:02:58.024Z,1.17
2023-02-22T01:05:24.432Z,1.10
2023-02-22T01:07:50.774Z,1.30
2023-02-22T01:10:17.168Z,1.37
2023-02-22T01:12:43.514Z,1.30
2023-02-22T01:15:09.888Z,1.20
2023-02-22T01:17:36.316Z,1.20
2023-02-22T01:20:02.717Z,1.20
2023-02-22T01:22:29.058Z,1.00
2023-02-22T01:24:55.456Z,1.37
2023-02-22T01:27:21.815Z,1.20
2023-02-22T01:29:48.252Z,1.40
2023-02-22T01:32:14.680Z,1.10
2023-02-22T01:34:41.014Z,1.37
2023-02-22T01:37:07.348Z,1.50
2023-02-22T01:39:33.742Z,1.20
2023-02-22T01:42:01.037Z,1.30
2023-02-22T01:44:26.472Z,1.23
2023-02-22T01:46:52.847Z,1.20
2023-02-22T01:49:20.415Z,1.33
2023-02-22T01:51:45.574Z,1.30
2023-02-22T01:54:11.962Z,1.20
2023-02-22T01:56:38.353Z,1.20
2023-02-22T01:59:04.702Z,1.30
2023-02-22T02:01:31.101Z,1.33
2023-02-22T02:03:57.487Z,1.37
2023-02-22T02:06:23.812Z,1.27
2023-02-22T02:08:50.227Z,1.30
2023-02-22T02:11:16.753Z,1.27
2023-02-22T02:13:42.981Z,1.30
2023-02-22T02:16:09.296Z,1.30
2023-02-22T02:18:35.706Z,1.20
2023-02-22T02:21:02.044Z,1.50
2023-02-22T02:23:28.426Z,1.20
2023-02-22T02:25:54.771Z,1.30
2023-02-22T02:28:21.149Z,1.30
2023-02-22T02:30:47.500Z,1.20
2023-02-22T02:33:13.897Z,1.33
2023-02-22T02:35:40.266Z,1.37
2023-02-22T02:38:06.653Z,1.20
2023-02-22T02:40:33.029Z,1.17
2023-02-22T02:42:59.380Z,1.20
2023-02-22T02:45:25.741Z,1.00
2023-02-22T02:47:52.143Z,1.20
2023-02-22T02:50:18.485Z,1.10
2023-02-22T02:52:44.868Z,1.20
2023-02-22T02:55:11.259Z,1.10
2023-02-22T02:57:37.629Z,1.10
2023-02-22T03:00:03.977Z,1.30
2023-02-22T03:02:30.371Z,1.20
2023-02-22T03:04:56.697Z,1.23
2023-02-22T03:07:23.126Z,1.17
2023-02-22T03:09:50.673Z,1.17
2023-02-22T03:12:15.831Z,1.40
2023-02-22T03:14:43.124Z,1.20
2023-02-22T03:17:08.560Z,1.27
2023-02-22T03:19:34.904Z,1.20
2023-02-22T03:22:01.289Z,1.30
2023-02-22T03:24:27.630Z,1.50
2023-02-22T03:26:54.024Z,1.20
2023-02-22T03:29:20.358Z,1.37
2023-02-22T03:31:46.745Z,1.33
2023-02-22T03:34:13.153Z,1.30
2023-02-22T03:36:41.489Z,1.03
2023-02-22T03:39:05.885Z,1.30
2023-02-22T03:41:32.321Z,1.40
2023-02-22T03:43:58.660Z,1.23
2023-02-22T03:46:25.088Z,1.37
2023-02-22T03:48:51.407Z,1.20
2023-02-22T03:51:18.239Z,1.20
2023-02-22T03:53:44.328Z,1.40
2023-02-22T03:56:10.667Z,1.40
2023-02-22T03:58:37.091Z,1.30
2023-02-22T04:01:03.467Z,1.20
2023-02-22T04:03:29.801Z,1.30
2023-02-22T04:05:56.183Z,1.20
2023-02-22T04:08:22.529Z,1.20
2023-02-22T04:10:48.925Z,1.37
2023-02-22T04:13:15.267Z,1.37
2023-02-22T04:15:41.720Z,1.20
2023-02-22T04:18:08.091Z,1.37
2023-02-22T04:20:34.431Z,1.00
2023-02-22T04:23:00.817Z,1.33
2023-02-22T04:25:27.152Z,1.43
2023-02-22T04:27:53.544Z,1.40
2023-02-22T04:30:19.952Z,1.33
2023-02-22T04:32:46.321Z,1.40
2023-02-22T04:35:12.666Z,1.50
2023-02-22T04:37:39.043Z,1.53
2023-02-22T04:40:05.387Z,1.40
2023-02-22T04:42:31.800Z,1.73
2023-02-22T04:44:58.142Z,1.50
2023-02-22T04:47:24.530Z,1.50
2023-02-22T04:49:50.874Z,1.50
2023-02-22T04:52:17.274Z,1.40
2023-02-22T04:54:43.654Z,1.70
2023-02-22T04:57:10.033Z,1.80
2023-02-22T04:59:36.377Z,1.40
2023-02-22T05:02:02.827Z,1.73
2023-02-22T05:04:29.205Z,1.70
2023-02-22T05:06:56.485Z,1.57
2023-02-22T05:09:21.887Z,1.60
2023-02-22T05:11:51.265Z,1.70
2023-02-22T05:14:17.603Z,1.93
2023-02-22T05:16:44.044Z,1.97
2023-02-22T05:19:10.362Z,2.10
2023-02-22T05:21:36.787Z,2.50
2023-02-22T05:24:03.133Z,2.60
2023-02-22T05:26:29.516Z,2.70
2023-02-22T05:28:55.881Z,2.40
2023-02-22T05:31:22.439Z,3.00
2023-02-22T05:33:48.671Z,2.53
2023-02-22T05:36:15.048Z,2.33
2023-02-22T05:38:41.391Z,2.50
2023-02-22T05:41:07.807Z,2.73
2023-02-22T05:43:34.135Z,2.20
2023-02-22T05:46:00.518Z,2.40
2023-02-22T05:48:26.886Z,2.30
2023-02-22T05:50:53.271Z,2.60
2023-02-22T05:53:19.621Z,2.40
2023-02-22T05:55:46.615Z,2.37
2023-02-22T05:58:12.376Z,2.57
2023-02-22T06:00:38.771Z,2.50
2023-02-22T06:03:05.112Z,2.30
2023-02-22T06:05:31.548Z,2.33
2023-02-22T06:07:57.837Z,2.90
2023-02-22T06:10:24.257Z,2.23
2023-02-22T06:12:50.607Z,2.60
2023-02-22T06:15:16.975Z,2.30
2023-02-22T06:17:43.336Z,2.50
2023-02-22T06:20:09.752Z,2.80
2023-02-22T06:22:36.090Z,2.50
2023-02-22T06:25:02.477Z,2.30
2023-02-22T06:27:28.814Z,2.50
2023-02-22T06:29:56.172Z,2.20
2023-02-22T06:32:21.619Z,2.87
2023-02-22T06:34:47.980Z,2.20
2023-02-22T06:37:14.319Z,2.10
2023-02-22T06:39:41.984Z,2.00
2023-02-22T06:42:07.116Z,2.10
2023-02-22T06:44:33.508Z,2.00
2023-02-22T06:46:59.873Z,2.10
2023-02-22T06:49:26.249Z,2.30
2023-02-22T06:51:52.587Z,1.87
2023-02-22T06:54:18.977Z,1.90
2023-02-22T06:56:45.352Z,2.07
2023-02-22T06:59:11.792Z,1.83
2023-02-22T07:01:38.134Z,2.13
2023-02-22T07:04:04.598Z,1.97
2023-02-22T07:06:30.937Z,1.70
2023-02-22T07:08:57.332Z,2.23
2023-02-22T07:11:23.758Z,1.90
2023-02-22T07:13:50.147Z,2.00
2023-02-22T07:16:16.562Z,2.13
2023-02-22T07:18:42.882Z,1.90
2023-02-22T07:21:09.225Z,1.93
2023-02-22T07:23:35.599Z,2.30
2023-02-22T07:26:01.994Z,2.50
2023-02-22T07:28:28.456Z,1.70
2023-02-22T07:30:54.808Z,1.93
2023-02-22T07:33:21.207Z,2.10
2023-02-22T07:35:47.563Z,2.43
2023-02-22T07:38:13.984Z,2.20
2023-02-22T07:40:40.360Z,2.73
2023-02-22T07:43:07.996Z,2.40
2023-02-22T07:45:33.149Z,2.60
2023-02-22T07:47:59.574Z,2.20
2023-02-22T07:50:25.899Z,2.57
2023-02-22T07:52:52.295Z,2.10
2023-02-22T07:55:18.629Z,2.30
2023-02-22T07:57:45.038Z,2.20
2023-02-22T08:00:11.381Z,2.60
2023-02-22T08:02:37.814Z,2.50
2023-02-22T08:05:04.149Z,2.50
2023-02-22T08:07:30.546Z,2.40
2023-02-22T08:09:56.889Z,2.37
2023-02-22T08:12:23.312Z,2.20
2023-02-22T08:14:49.691Z,2.53
2023-02-22T08:17:16.135Z,2.33
2023-02-22T08:19:42.440Z,2.43
2023-02-22T08:22:08.832Z,2.40
2023-02-22T08:24:35.188Z,2.30
2023-02-22T08:27:01.573Z,2.23
2023-02-22T08:29:27.921Z,2.57
2023-02-22T08:31:54.403Z,2.37
2023-02-22T08:34:20.660Z,2.60
2023-02-22T08:36:47.108Z,2.57
2023-02-22T08:39:13.454Z,2.53
2023-02-22T08:41:39.831Z,2.30
2023-02-22T08:44:06.170Z,2.43
2023-02-22T08:46:32.563Z,2.17
2023-02-22T08:48:58.908Z,2.40
2023-02-22T08:51:27.678Z,2.30
2023-02-22T08:53:53.847Z,2.70
2023-02-22T08:56:20.264Z,2.17
2023-02-22T08:58:46.669Z,2.60
2023-02-22T09:01:15.516Z,2.27
2023-02-22T09:03:39.437Z,2.30
2023-02-22T09:06:05.822Z,2.43
2023-02-22T09:08:32.146Z,2.40
2023-02-22T09:10:58.542Z,2.30
2023-02-22T09:16:10.241Z,2.43
2023-02-22T09:18:43.946Z,2.20
2023-02-22T09:21:02.946Z,2.20
2023-02-22T09:23:29.315Z,2.10
2023-02-22T09:25:55.709Z,2.37
2023-02-22T09:28:22.097Z,2.30
2023-02-22T09:30:48.551Z,2.07
2023-02-22T09:33:14.912Z,2.03
2023-02-22T09:35:41.227Z,2.20
2023-02-22T09:38:07.571Z,2.03
2023-02-22T09:40:33.992Z,2.20
2023-02-22T09:43:00.327Z,2.30
2023-02-22T09:45:26.864Z,1.83
2023-02-22T09:47:54.879Z,2.23
2023-02-22T09:50:19.502Z,2.03
2023-02-22T09:52:45.904Z,1.80
2023-02-22T09:55:12.377Z,1.97
2023-02-22T09:57:38.721Z,2.00
2023-02-22T10:00:05.114Z,2.20
2023-02-22T10:02:31.460Z,2.00
2023-02-22T10:04:57.846Z,2.13
2023-02-22T10:07:24.226Z,2.00
2023-02-22T10:09:50.665Z,2.00
2023-02-22T10:12:17.022Z,2.47
2023-02-22T10:14:44.071Z,1.73
2023-02-22T10:17:09.771Z,1.90
2023-02-22T10:19:36.167Z,1.80
2023-02-22T10:22:02.547Z,1.77
2023-02-22T10:24:28.924Z,1.70
2023-02-22T10:26:55.334Z,1.87
2023-02-22T10:29:21.762Z,1.80
2023-02-22T10:31:48.208Z,1.80
2023-02-22T10:34:14.503Z,1.70
2023-02-22T10:36:40.849Z,1.80
2023-02-22T10:39:07.267Z,1.70
2023-02-22T10:41:33.618Z,1.60
2023-02-22T10:44:00.006Z,1.60
2023-02-22T10:46:26.358Z,1.93
2023-02-22T10:48:52.749Z,1.60
2023-02-22T10:51:19.131Z,1.63
2023-02-22T10:53:45.531Z,1.80
2023-02-22T10:56:11.881Z,1.60
2023-02-22T10:58:38.279Z,1.70
2023-02-22T11:01:05.641Z,1.90
2023-02-22T11:03:31.268Z,1.43
2023-02-22T11:05:57.588Z,1.90
2023-02-22T11:08:23.984Z,1.90
2023-02-22T11:10:50.328Z,3.10
2023-02-22T11:13:16.725Z,1.73
2023-02-22T11:15:43.072Z,1.70
2023-02-22T11:18:09.456Z,2.33
2023-02-22T11:20:35.814Z,1.43
2023-02-22T11:23:02.213Z,1.70
2023-02-22T11:25:28.574Z,1.60
2023-02-22T11:27:54.996Z,1.63
2023-02-22T11:30:21.352Z,1.53
2023-02-22T11:32:47.728Z,1.70
2023-02-22T11:35:14.080Z,1.53
2023-02-22T11:37:40.515Z,1.50
2023-02-22T11:40:06.861Z,1.53
2023-02-22T11:42:33.220Z,1.50
2023-02-22T11:44:59.572Z,1.50
2023-02-22T11:47:25.956Z,1.40
2023-02-22T11:49:52.307Z,1.63
2023-02-22T11:52:18.685Z,1.37
2023-02-22T11:54:45.052Z,1.30
2023-02-22T11:57:11.465Z,1.70
2023-02-22T11:59:37.776Z,1.50
2023-02-22T12:02:04.168Z,1.53
2023-02-22T12:04:30.611Z,1.60
2023-02-22T12:06:56.912Z,1.80
2023-02-22T12:09:23.278Z,1.50
2023-02-22T12:11:49.677Z,1.63
2023-02-22T12:14:16.070Z,2.10
2023-02-22T12:16:42.443Z,1.30
2023-02-22T12:19:08.804Z,1.47
2023-02-22T12:21:35.188Z,1.50
2023-02-22T12:24:01.551Z,1.30
2023-02-22T12:26:27.932Z,1.40
2023-02-22T12:28:54.301Z,1.80
2023-02-22T12:31:20.732Z,1.93
2023-02-22T12:33:47.088Z,1.60
2023-02-22T12:36:13.441Z,1.70
2023-02-22T12:38:39.786Z,1.30
2023-02-22T12:41:06.182Z,1.20
2023-02-22T12:43:32.538Z,1.47
2023-02-22T12:45:59.058Z,1.50
2023-02-22T12:48:25.399Z,1.37
2023-02-22T12:50:51.764Z,1.50
2023-02-22T12:53:18.127Z,1.40
2023-02-22T12:55:44.524Z,1.50
2023-02-22T12:58:10.873Z,1.40
2023-02-22T13:00:37.276Z,1.30
2023-02-22T13:03:03.617Z,1.20
2023-02-22T13:05:30.063Z,1.40
2023-02-22T13:07:56.416Z,1.50
2023-02-22T13:10:22.797Z,1.40
2023-02-22T13:12:51.379Z,1.50
2023-02-22T13:15:15.544Z,1.77
2023-02-22T13:17:41.891Z,1.50
2023-02-22T13:20:08.312Z,1.30
2023-02-22T13:22:34.688Z,1.30
2023-02-22T13:25:01.092Z,3.00
2023-02-22T13:27:27.439Z,1.50
2023-02-22T13:29:53.834Z,1.57
2023-02-22T13:32:20.265Z,1.50
2023-02-22T13:34:46.635Z,2.07
2023-02-22T13:37:12.962Z,1.50
2023-02-22T13:39:39.334Z,1.50
2023-02-22T13:42:05.683Z,1.20
2023-02-22T13:44:32.089Z,1.70
2023-02-22T13:46:58.430Z,1.33
2023-02-22T13:49:25.771Z,1.57
2023-02-22T13:51:51.172Z,1.40
2023-02-22T13:54:17.610Z,1.43
2023-02-22T13:56:43.957Z,1.40
2023-02-22T13:59:10.473Z,1.30
2023-02-22T14:01:36.783Z,1.40
2023-02-22T14:04:03.185Z,1.70
2023-02-22T14:06:29.531Z,1.37
2023-02-22T14:08:55.949Z,1.50
2023-02-22T14:11:22.298Z,1.80
2023-02-22T14:13:48.752Z,1.40
2023-02-22T14:16:15.385Z,1.50
2023-02-22T14:18:41.514Z,1.40
2023-02-22T14:21:07.856Z,1.50
2023-02-22T14:23:34.256Z,1.40
2023-02-22T14:26:00.634Z,1.37
2023-02-22T14:28:27.027Z,1.40
2023-02-22T14:30:53.373Z,1.60
2023-02-22T14:33:19.772Z,1.63
2023-02-22T14:35:50.151Z,1.63
2023-02-22T14:38:12.510Z,1.30
2023-02-22T14:40:38.862Z,1.90
2023-02-22T14:43:05.221Z,1.53
2023-02-22T14:45:31.631Z,1.40
2023-02-22T14:47:57.940Z,1.57
2023-02-22T14:50:24.327Z,1.27
2023-02-22T14:52:50.715Z,1.50
2023-02-22T14:55:17.126Z,1.57
2023-02-22T14:57:43.464Z,1.60
2023-02-22T15:00:09.858Z,1.30
2023-02-22T15:02:36.245Z,1.50
2023-02-22T15:05:02.669Z,1.40
2023-02-22T15:07:28.967Z,1.60
2023-02-22T15:09:55.347Z,1.50
2023-02-22T15:12:21.697Z,1.60
2023-02-22T15:14:48.086Z,1.70
2023-02-22T15:17:14.424Z,1.73
2023-02-22T15:19:40.830Z,1.50
2023-02-22T15:22:07.173Z,1.43
2023-02-22T15:24:33.569Z,1.50
2023-02-22T15:27:02.636Z,1.60
2023-02-22T15:29:26.390Z,1.50
2023-02-22T15:31:52.657Z,1.50
2023-02-22T15:34:19.042Z,1.40
2023-02-22T15:36:45.389Z,1.47
2023-02-22T15:39:11.795Z,1.50
2023-02-22T15:41:38.139Z,1.40
2023-02-22T15:44:17.560Z,1.60
2023-02-22T15:46:30.916Z,1.50
2023-02-22T15:48:57.320Z,1.50
2023-02-22T15:51:23.649Z,1.47
2023-02-22T15:53:50.077Z,1.60
2023-02-22T15:56:16.422Z,1.53
2023-02-22T15:58:42.820Z,1.50
2023-02-22T16:01:10.152Z,1.50
2023-02-22T16:03:35.536Z,1.60
2023-02-22T16:06:01.872Z,1.63
2023-02-22T16:08:28.271Z,1.50
2023-02-22T16:10:54.622Z,1.70
2023-02-22T16:13:31.109Z,1.60
2023-02-22T16:15:47.348Z,1.60
2023-02-22T16:18:13.781Z,1.80
2023-02-22T16:20:40.082Z,1.60
2023-02-22T16:23:06.470Z,1.60
2023-02-22T16:25:32.883Z,1.50
2023-02-22T16:27:59.355Z,1.70
2023-02-22T16:30:26.062Z,1.70
2023-02-22T16:32:52.101Z,1.60
2023-02-22T16:35:18.561Z,1.90
2023-02-22T16:37:44.853Z,1.63
2023-02-22T16:40:11.203Z,1.87
2023-02-22T16:42:37.592Z,1.67
2023-02-22T16:45:03.927Z,1.57
2023-02-22T16:47:30.324Z,1.60
2023-02-22T16:49:56.770Z,1.80
2023-02-22T16:52:23.045Z,1.90
2023-02-22T16:54:49.397Z,1.77
2023-02-22T16:57:15.758Z,1.60
2023-02-22T16:59:42.105Z,1.90
2023-02-22T17:02:08.479Z,1.50
2023-02-22T17:04:34.815Z,1.90
2023-02-22T17:07:02.576Z,1.53
2023-02-22T17:09:27.535Z,1.80
2023-02-22T17:11:53.916Z,1.93
2023-02-22T17:14:20.247Z,1.70
2023-02-22T17:16:46.637Z,1.80
2023-02-22T17:19:12.981Z,2.03
2023-02-22T17:21:39.394Z,1.90
2023-02-22T17:24:05.732Z,1.90
2023-02-22T17:26:32.198Z,1.67
2023-02-22T17:28:58.533Z,1.90
2023-02-22T17:31:24.957Z,1.70
2023-02-22T17:33:51.330Z,2.00
2023-02-22T17:36:17.908Z,1.70
2023-02-22T17:38:43.975Z,1.90
2023-02-22T17:41:10.360Z,1.90
2023-02-22T17:43:36.702Z,1.87
2023-02-22T17:46:03.117Z,1.67
2023-02-22T17:48:29.459Z,1.70
2023-02-22T17:50:55.832Z,1.87
2023-02-22T17:53:22.182Z,2.00
2023-02-22T17:55:48.586Z,2.07
2023-02-22T17:58:14.996Z,1.60
2023-02-22T18:00:41.341Z,1.90
2023-02-22T18:03:07.754Z,1.97
2023-02-22T18:05:34.123Z,1.90
2023-02-22T18:08:00.454Z,1.93
2023-02-22T18:10:26.847Z,1.97
2023-02-22T18:12:53.198Z,2.20
2023-02-22T18:15:19.579Z,2.07
2023-02-22T18:17:45.911Z,2.40
2023-02-22T18:20:12.301Z,2.03
2023-02-22T18:22:38.650Z,2.13
2023-02-22T18:25:05.049Z,2.07
2023-02-22T18:27:31.371Z,2.30
2023-02-22T18:29:57.762Z,2.23
2023-02-22T18:32:24.156Z,2.23
2023-02-22T18:34:50.478Z,2.20
2023-02-22T18:37:16.814Z,2.30
2023-02-22T18:39:43.191Z,1.93
2023-02-22T18:42:09.537Z,2.43
2023-02-22T18:44:35.932Z,2.30
2023-02-22T18:47:02.272Z,2.40
2023-02-22T18:49:28.735Z,2.10
2023-02-22T18:51:55.071Z,2.00
2023-02-22T18:54:21.519Z,1.93
2023-02-22T18:56:47.844Z,2.30
2023-02-22T18:59:14.221Z,2.33
2023-02-22T19:01:40.665Z,2.17
2023-02-22T19:04:06.979Z,1.97
2023-02-22T19:06:33.317Z,2.40
2023-02-22T19:08:59.702Z,2.00
2023-02-22T19:11:26.039Z,1.90
2023-02-22T19:13:52.459Z,2.40
2023-02-22T19:16:19.199Z,2.37
2023-02-22T19:18:45.269Z,2.10
2023-02-22T19:21:11.609Z,2.10
2023-02-22T19:23:39.766Z,2.13
2023-02-22T19:26:04.338Z,2.00
2023-02-22T19:28:30.712Z,2.03
2023-02-22T19:30:57.086Z,2.30
2023-02-22T19:33:23.440Z,1.70
2023-02-22T19:35:49.796Z,2.07
2023-02-22T19:38:16.153Z,2.10
2023-02-22T19:40:42.501Z,2.17
2023-02-22T19:43:08.883Z,1.80
2023-02-22T19:45:35.412Z,2.17
2023-02-22T19:48:01.748Z,2.10
2023-02-22T19:50:28.091Z,1.80
2023-02-22T19:52:54.478Z,1.90
2023-02-22T19:55:20.810Z,2.17
2023-02-22T19:57:47.191Z,1.90
2023-02-22T20:00:13.531Z,2.17
2023-02-22T20:02:39.938Z,2.10
2023-02-22T20:05:06.380Z,2.00
2023-02-22T20:07:32.766Z,2.03
2023-02-22T20:09:59.103Z,2.20
2023-02-22T20:12:25.493Z,1.97
2023-02-22T20:14:51.831Z,1.83
2023-02-22T20:17:18.222Z,1.77
2023-02-22T20:19:44.566Z,2.10
2023-02-22T20:22:10.957Z,1.87
2023-02-22T20:24:37.298Z,2.00
2023-02-22T20:27:03.697Z,1.63
2023-02-22T20:29:30.078Z,2.10
2023-02-22T20:31:56.608Z,1.90
2023-02-22T20:34:26.016Z,2.00
2023-02-22T20:36:49.195Z,1.70
2023-02-22T20:39:15.526Z,1.90
2023-02-22T20:41:41.957Z,2.00
2023-02-22T20:44:08.353Z,1.80
2023-02-22T20:46:34.745Z,2.10
2023-02-22T20:49:01.129Z,1.90
2023-02-22T20:51:27.488Z,1.80
2023-02-22T20:53:53.897Z,1.97
2023-02-22T20:56:20.274Z,2.07
2023-02-22T20:58:46.619Z,1.97
2023-02-22T21:01:13.007Z,1.90
2023-02-22T21:03:39.345Z,1.90
2023-02-22T21:06:05.725Z,1.80
2023-02-22T21:08:32.064Z,1.77
2023-02-22T21:10:58.444Z,1.97
2023-02-22T21:13:24.782Z,1.90
2023-02-22T21:15:52.693Z,1.70
2023-02-22T21:18:17.513Z,1.60
2023-02-22T21:20:43.896Z,1.80
2023-02-22T21:23:10.355Z,1.93
2023-02-22T21:25:36.700Z,2.00
2023-02-22T21:28:03.032Z,2.03
2023-02-22T21:30:29.452Z,1.80
2023-02-22T21:32:55.901Z,1.70
2023-02-22T21:35:22.308Z,2.00
2023-02-22T21:37:48.650Z,1.60
2023-02-22T21:40:15.041Z,1.67
2023-02-22T21:42:41.391Z,2.00
2023-02-22T21:45:07.834Z,1.93
2023-02-22T21:47:34.163Z,1.90
2023-02-22T21:50:00.543Z,1.80
2023-02-22T21:52:26.888Z,1.80
2023-02-22T21:54:53.273Z,1.73
2023-02-22T21:57:19.624Z,1.80
2023-02-22T21:59:45.998Z,1.90
2023-02-22T22:02:12.375Z,1.87
2023-02-22T22:04:38.745Z,2.10
2023-02-22T22:07:05.118Z,1.80
2023-02-22T22:09:31.506Z,1.73
2023-02-22T22:11:57.866Z,1.57
2023-02-22T22:14:24.259Z,1.80
2023-02-22T22:16:50.597Z,1.70
2023-02-22T22:19:16.977Z,1.90
2023-02-22T22:21:43.325Z,2.00
2023-02-22T22:24:09.703Z,1.63
2023-02-22T22:26:36.075Z,1.67
2023-02-22T22:29:02.552Z,1.90
2023-02-22T22:31:29.046Z,2.10
2023-02-22T22:33:55.344Z,2.40
2023-02-22T22:36:21.623Z,1.90
2023-02-22T22:38:48.016Z,2.10
2023-02-22T22:41:14.362Z,1.60
2023-02-22T22:43:40.739Z,1.63
2023-02-22T22:46:07.183Z,1.70
2023-02-22T22:48:33.455Z,1.70
2023-02-22T22:50:59.800Z,1.60
2023-02-22T22:53:26.175Z,1.67
2023-02-22T22:55:52.518Z,1.70
2023-02-22T22:58:18.906Z,1.77
2023-02-22T23:00:45.245Z,1.70
2023-02-22T23:03:11.727Z,1.70
2023-02-22T23:05:37.981Z,1.83
2023-02-22T23:08:04.360Z,1.70
2023-02-22T23:10:30.703Z,1.90
2023-02-22T23:12:57.094Z,1.60
2023-02-22T23:15:23.432Z,1.90
2023-02-22T23:17:51.033Z,1.80
2023-02-22T23:20:16.143Z,1.93
2023-02-22T23:22:42.543Z,2.13
2023-02-22T23:25:08.907Z,1.80
2023-02-22T23:27:35.363Z,1.80
2023-02-22T23:30:01.739Z,1.77
2023-02-22T23:32:28.203Z,1.70
2023-02-22T23:34:54.476Z,1.70
2023-02-22T23:37:20.934Z,1.40
2023-02-22T23:39:47.198Z,1.60
2023-02-22T23:42:13.591Z,1.70
2023-02-22T23:44:39.922Z,1.60
2023-02-22T23:47:06.305Z,1.73
2023-02-22T23:49:32.662Z,1.80
2023-02-22T23:51:59.043Z,1.70
2023-02-22T23:54:28.408Z,1.63
2023-02-22T23:56:54.777Z,1.77
2023-02-22T23:59:21.122Z,1.80
